Portada
METAR-TAF:

METAR-TAF

Aeroports :

Arar, Aràbia Saudita

latitud: 30-54N, longitud: 041-08E, altitud: 555 m

Observació

L'informe es va fer fa 1 hora i 7 minuts, a les 11:00 UTC
Vent 9 kt del Est/Nord-Est
Temperatura 17°C
Humitat 20%
Pressió 1019 hPa
Visibilitat 10 km o més
sense núvols per sota de 1500 mi sense presència de cumulonimbus.

METAR: OERR 181100Z 06009KT CAVOK 17/M06 Q1019

Hora: 15:07 (12:07 UTC)

Pronòstic

L'informe es va fer fa 1 hora i 7 minuts, a les 11:00 UTC
Pronòstic vàlid del 18 a les 12 UTC al 19 a les 18 UTC
Vent 10 kt del Nord-Est
Visibilitat 10 km o més
sense núvols per sota de 1500 mi sense presència de cumulonimbus.

TAF: OERR 181100Z 1812/1918 05010KT CAVOK

Observacions i pronòstics meteorològics de més de 4000 aeroports (METAR i TAF).

Les estacions disponibles són els punts grocs i vermells al mapa.

Posi el ratolí al punt desitjat per veure el nom de l'estació.

Feu clic per veure les observacions i els pronòstics meteorològics.

Per canviar el mapa: feu clic els botons verds amb una creu de color negre per apropar; al botó verd amb un guió per allunyar la imatge; o en les fletxes verdes per a mapes adjacents.


METAR-TAF: